AVA117 SKBO-SEQM
Flight info
| Callsign | AVA117 |
|---|---|
| Flight time | N/A |
| Altitude | 23000 |
| Route | VAPOM4R OREGA Z009 PPN/N0401F240 W48 MER G675 IPI/N0394F230 G675 QIT |
| Aircraft | A320/M-SDE3FGHIRWY/LB1 |
Departure
| Time | N/A |
|---|---|
| Airport | El Dorado International Airport (SKBO) |
Arrival
| Time | 2026-04-28 20:11 |
|---|---|
| Airport | Mariscal Sucre International Airport (SEQM) |
| Time | Latitude | Longitude | Altitude | Speed | Heading |
|---|---|---|---|---|---|
| 2026-04-28 19:57 | 0.60665 | -77.91010 | 36230 ft | 453 kts | 223° |
| 2026-04-28 19:57 | 0.58349 | -77.93167 | 35214 ft | 462 kts | 223° |
| 2026-04-28 19:57 | 0.55973 | -77.95403 | 34124 ft | 473 kts | 223° |
| 2026-04-28 19:57 | 0.53611 | -77.97633 | 33858 ft | 462 kts | 223° |
| 2026-04-28 19:58 | 0.51288 | -77.99816 | 33458 ft | 454 kts | 223° |
| 2026-04-28 19:58 | 0.48999 | -78.01956 | 32987 ft | 448 kts | 223° |
| 2026-04-28 19:58 | 0.46742 | -78.04060 | 32252 ft | 440 kts | 222° |
| 2026-04-28 19:58 | 0.44514 | -78.06134 | 31455 ft | 433 kts | 222° |
| 2026-04-28 19:59 | 0.42322 | -78.08169 | 30689 ft | 427 kts | 221° |
| 2026-04-28 19:59 | 0.40170 | -78.10170 | 29860 ft | 420 kts | 221° |
| 2026-04-28 19:59 | 0.38048 | -78.12145 | 28953 ft | 415 kts | 221° |
| 2026-04-28 19:59 | 0.35943 | -78.14101 | 28059 ft | 411 kts | 220° |
| 2026-04-28 20:00 | 0.33891 | -78.16007 | 27205 ft | 407 kts | 221° |
| 2026-04-28 20:00 | 0.31828 | -78.17925 | 26358 ft | 403 kts | 221° |
| 2026-04-28 20:00 | 0.29782 | -78.19833 | 25510 ft | 400 kts | 221° |
| 2026-04-28 20:00 | 0.27754 | -78.21722 | 24703 ft | 397 kts | 221° |
| 2026-04-28 20:01 | 0.25739 | -78.23598 | 23908 ft | 395 kts | 221° |
| 2026-04-28 20:01 | 0.23731 | -78.25463 | 23027 ft | 392 kts | 221° |
| 2026-04-28 20:01 | 0.21713 | -78.27336 | 22210 ft | 388 kts | 221° |
| 2026-04-28 20:01 | 0.19776 | -78.29136 | 21475 ft | 384 kts | 221° |
| 2026-04-28 20:02 | 0.18030 | -78.31132 | 20758 ft | 380 kts | 236° |
| 2026-04-28 20:02 | 0.16663 | -78.33374 | 20050 ft | 376 kts | 238° |
| 2026-04-28 20:02 | 0.15323 | -78.35606 | 19347 ft | 373 kts | 238° |
| 2026-04-28 20:02 | 0.14003 | -78.37820 | 18676 ft | 369 kts | 238° |
| 2026-04-28 20:03 | 0.12699 | -78.40014 | 17919 ft | 365 kts | 238° |
| 2026-04-28 20:03 | 0.11414 | -78.42182 | 17194 ft | 361 kts | 238° |
| 2026-04-28 20:03 | 0.10140 | -78.44330 | 16488 ft | 357 kts | 238° |
| 2026-04-28 20:03 | 0.08691 | -78.46305 | 15827 ft | 350 kts | 220° |
| 2026-04-28 20:04 | 0.06682 | -78.47586 | 15255 ft | 338 kts | 196° |
| 2026-04-28 20:04 | 0.04466 | -78.47977 | 15128 ft | 313 kts | 176° |
| 2026-04-28 20:04 | 0.02405 | -78.47640 | 14919 ft | 293 kts | 157° |
| 2026-04-28 20:04 | 0.00574 | -78.46819 | 14521 ft | 286 kts | 152° |
| 2026-04-28 20:05 | -0.01226 | -78.45962 | 14102 ft | 284 kts | 154° |
| 2026-04-28 20:05 | -0.03033 | -78.45293 | 13942 ft | 270 kts | 160° |
| 2026-04-28 20:05 | -0.04851 | -78.44861 | 13392 ft | 271 kts | 168° |
| 2026-04-28 20:05 | -0.06747 | -78.44637 | 12681 ft | 277 kts | 172° |
| 2026-04-28 20:06 | -0.08642 | -78.44450 | 12346 ft | 267 kts | 172° |
| 2026-04-28 20:06 | -0.10436 | -78.44272 | 12203 ft | 251 kts | 172° |
| 2026-04-28 20:06 | -0.12152 | -78.44100 | 11854 ft | 245 kts | 173° |
| 2026-04-28 20:06 | -0.13818 | -78.43931 | 11519 ft | 239 kts | 173° |
| 2026-04-28 20:07 | -0.15425 | -78.43697 | 11226 ft | 226 kts | 164° |
| 2026-04-28 20:07 | -0.16387 | -78.43358 | 11013 ft | 218 kts | 154° |
| 2026-04-28 20:07 | -0.18009 | -78.42264 | 10636 ft | 203 kts | 137° |
| 2026-04-28 20:07 | -0.18691 | -78.41653 | 10434 ft | 196 kts | 137° |
| 2026-04-28 20:08 | -0.20014 | -78.40481 | 10050 ft | 189 kts | 134° |
| 2026-04-28 20:08 | -0.20557 | -78.39787 | 9868 ft | 187 kts | 116° |
| 2026-04-28 20:08 | -0.20954 | -78.38165 | 9597 ft | 180 kts | 83° |
| 2026-04-28 20:08 | -0.20809 | -78.37346 | 9446 ft | 175 kts | 68° |
| 2026-04-28 20:09 | -0.19962 | -78.36029 | 9134 ft | 171 kts | 40° |
| 2026-04-28 20:09 | -0.18959 | -78.35410 | 8884 ft | 170 kts | 19° |
| 2026-04-28 20:09 | -0.17811 | -78.35212 | 8694 ft | 168 kts | 359° |
| 2026-04-28 20:09 | -0.16662 | -78.35274 | 8496 ft | 162 kts | 356° |
| 2026-04-28 20:10 | -0.15516 | -78.35316 | 8237 ft | 166 kts | 358° |
| 2026-04-28 20:10 | -0.15126 | -78.35326 | 8149 ft | 166 kts | 359° |
| 2026-04-28 20:10 | -0.13599 | -78.35395 | 7897 ft | 158 kts | 358° |
| 2026-04-28 20:10 | -0.12642 | -78.35432 | 7859 ft | 114 kts | 357° |
| 2026-04-28 20:11 | -0.11995 | -78.35460 | 7828 ft | 79 kts | 356° |
| 2026-04-28 20:11 | -0.11701 | -78.35527 | 7824 ft | 24 kts | 329° |
| 2026-04-28 20:11 | -0.11621 | -78.35632 | 7821 ft | 16 kts | 234° |
| 2026-04-28 20:11 | -0.11717 | -78.35642 | 7824 ft | 15 kts | 177° |
| 2026-04-28 20:12 | -0.11880 | -78.35635 | 7828 ft | 32 kts | 179° |
| 2026-04-28 20:12 | -0.12039 | -78.35630 | 7833 ft | 15 kts | 177° |
| 2026-04-28 20:12 | -0.12132 | -78.35625 | 7837 ft | 15 kts | 177° |
| 2026-04-28 20:12 | -0.12256 | -78.35620 | 7841 ft | 21 kts | 178° |
| 2026-04-28 20:13 | -0.12361 | -78.35649 | 7837 ft | 12 kts | 253° |
| 2026-04-28 20:13 | -0.12359 | -78.35694 | 7839 ft | 9 kts | 266° |
| 2026-04-28 20:13 | -0.12364 | -78.35804 | 7841 ft | 14 kts | 269° |
| 2026-04-28 20:13 | -0.12301 | -78.35847 | 7841 ft | 12 kts | 359° |
| 2026-04-28 20:14 | -0.12251 | -78.35872 | 7837 ft | 7 kts | 267° |
| 2026-04-28 20:14 | -0.12256 | -78.35912 | 7838 ft | 4 kts | 265° |
| 2026-04-28 20:14 | -0.12257 | -78.35932 | 7838 ft | 3 kts | 268° |
| 2026-04-28 20:14 | -0.12257 | -78.35940 | 7838 ft | 0 kts | 269° |
| 2026-04-28 20:25 | -0.12258 | -78.35936 | 7830 ft | 0 kts | 268° |